sensor_id;sensor_type;location;lat;lon;timestamp;pressure;altitude;pressure_sealevel;temperature;humidity
32033;BME280;31720;52.638;9.216;2022-10-24T00:02:15;100451.25;;;13.39;100.00
32033;BME280;31720;52.638;9.216;2022-10-24T00:05:17;100454.00;;;13.38;100.00
32033;BME280;31720;52.638;9.216;2022-10-24T00:08:19;100455.28;;;13.45;100.00
32033;BME280;31720;52.638;9.216;2022-10-24T00:11:22;100448.09;;;13.47;100.00
32033;BME280;31720;52.638;9.216;2022-10-24T00:14:26;100455.88;;;13.49;100.00
32033;BME280;31720;52.638;9.216;2022-10-24T00:17:27;100451.34;;;13.51;100.00
32033;BME280;31720;52.638;9.216;2022-10-24T00:20:29;100457.59;;;13.50;100.00
32033;BME280;31720;52.638;9.216;2022-10-24T00:23:30;100459.16;;;13.52;100.00
32033;BME280;31720;52.638;9.216;2022-10-24T00:26:32;100456.50;;;13.52;100.00
32033;BME280;31720;52.638;9.216;2022-10-24T00:29:35;100446.72;;;13.54;100.00
32033;BME280;31720;52.638;9.216;2022-10-24T00:32:37;100448.59;;;13.52;100.00
32033;BME280;31720;52.638;9.216;2022-10-24T00:35:38;100449.69;;;13.50;100.00
32033;BME280;31720;52.638;9.216;2022-10-24T00:38:40;100452.53;;;13.47;100.00
32033;BME280;31720;52.638;9.216;2022-10-24T00:41:42;100442.91;;;13.45;100.00
32033;BME280;31720;52.638;9.216;2022-10-24T00:44:47;100441.25;;;13.44;100.00
32033;BME280;31720;52.638;9.216;2022-10-24T00:47:49;100446.59;;;13.43;100.00
32033;BME280;31720;52.638;9.216;2022-10-24T00:50:55;100448.53;;;13.41;100.00
32033;BME280;31720;52.638;9.216;2022-10-24T00:53:59;100448.72;;;13.38;100.00
32033;BME280;31720;52.638;9.216;2022-10-24T00:57:05;100443.44;;;13.38;100.00
32033;BME280;31720;52.638;9.216;2022-10-24T01:00:13;100435.22;;;13.30;100.00
32033;BME280;31720;52.638;9.216;2022-10-24T01:03:15;100435.53;;;13.25;100.00
32033;BME280;31720;52.638;9.216;2022-10-24T01:06:26;100430.38;;;13.24;100.00
32033;BME280;31720;52.638;9.216;2022-10-24T01:09:50;100431.34;;;13.23;100.00
32033;BME280;31720;52.638;9.216;2022-10-24T01:13:02;100413.88;;;13.20;100.00
32033;BME280;31720;52.638;9.216;2022-10-24T01:16:13;100421.16;;;13.16;100.00
32033;BME280;31720;52.638;9.216;2022-10-24T01:19:42;100418.09;;;13.10;100.00
32033;BME280;31720;52.638;9.216;2022-10-24T01:23:03;100404.59;;;13.02;100.00
32033;BME280;31720;52.638;9.216;2022-10-24T01:26:20;100407.66;;;12.95;100.00
32033;BME280;31720;52.638;9.216;2022-10-24T01:29:47;100411.25;;;12.94;100.00
32033;BME280;31720;52.638;9.216;2022-10-24T01:32:56;100408.06;;;12.89;100.00
32033;BME280;31720;52.638;9.216;2022-10-24T01:36:02;100403.09;;;12.85;100.00
32033;BME280;31720;52.638;9.216;2022-10-24T01:39:10;100394.56;;;12.81;100.00
32033;BME280;31720;52.638;9.216;2022-10-24T01:42:15;100389.50;;;12.78;100.00
32033;BME280;31720;52.638;9.216;2022-10-24T01:45:25;100381.72;;;12.77;100.00
32033;BME280;31720;52.638;9.216;2022-10-24T01:48:32;100387.72;;;12.79;100.00
32033;BME280;31720;52.638;9.216;2022-10-24T01:51:35;100386.66;;;12.81;100.00
32033;BME280;31720;52.638;9.216;2022-10-24T01:54:37;100386.66;;;12.81;100.00
32033;BME280;31720;52.638;9.216;2022-10-24T01:57:39;100378.53;;;12.84;100.00
32033;BME280;31720;52.638;9.216;2022-10-24T02:00:43;100373.91;;;12.88;100.00
32033;BME280;31720;52.638;9.216;2022-10-24T02:03:49;100365.03;;;12.89;100.00
32033;BME280;31720;52.638;9.216;2022-10-24T02:06:53;100372.63;;;12.93;100.00
32033;BME280;31720;52.638;9.216;2022-10-24T02:09:59;100369.25;;;12.91;100.00
32033;BME280;31720;52.638;9.216;2022-10-24T02:13:07;100358.59;;;12.93;100.00
32033;BME280;31720;52.638;9.216;2022-10-24T02:16:15;100355.09;;;12.92;100.00
32033;BME280;31720;52.638;9.216;2022-10-24T02:19:17;100344.88;;;12.88;100.00
32033;BME280;31720;52.638;9.216;2022-10-24T02:22:27;100338.03;;;12.85;100.00
32033;BME280;31720;52.638;9.216;2022-10-24T02:25:32;100338.97;;;12.84;100.00
32033;BME280;31720;52.638;9.216;2022-10-24T02:28:39;100342.69;;;12.82;100.00
32033;BME280;31720;52.638;9.216;2022-10-24T02:31:49;100346.56;;;12.76;100.00
32033;BME280;31720;52.638;9.216;2022-10-24T02:34:52;100345.19;;;12.70;100.00
32033;BME280;31720;52.638;9.216;2022-10-24T02:38:00;100342.69;;;12.69;100.00
32033;BME280;31720;52.638;9.216;2022-10-24T02:41:07;100335.81;;;12.66;100.00
32033;BME280;31720;52.638;9.216;2022-10-24T02:44:09;100331.50;;;12.65;100.00
32033;BME280;31720;52.638;9.216;2022-10-24T02:47:15;100333.41;;;12.63;100.00
32033;BME280;31720;52.638;9.216;2022-10-24T02:50:19;100338.03;;;12.60;100.00
32033;BME280;31720;52.638;9.216;2022-10-24T02:53:23;100324.09;;;12.58;100.00
32033;BME280;31720;52.638;9.216;2022-10-24T02:56:25;100332.31;;;12.53;100.00
32033;BME280;31720;52.638;9.216;2022-10-24T02:59:27;100317.47;;;12.52;100.00
32033;BME280;31720;52.638;9.216;2022-10-24T03:02:30;100309.56;;;12.52;100.00
32033;BME280;31720;52.638;9.216;2022-10-24T03:05:31;100319.25;;;12.52;100.00
32033;BME280;31720;52.638;9.216;2022-10-24T03:08:33;100327.47;;;12.47;100.00
32033;BME280;31720;52.638;9.216;2022-10-24T03:11:34;100332.84;;;12.46;100.00
32033;BME280;31720;52.638;9.216;2022-10-24T03:14:36;100322.50;;;12.42;100.00
32033;BME280;31720;52.638;9.216;2022-10-24T03:17:39;100324.31;;;12.42;100.00
32033;BME280;31720;52.638;9.216;2022-10-24T03:20:40;100314.81;;;12.39;100.00
32033;BME280;31720;52.638;9.216;2022-10-24T03:23:42;100322.81;;;12.38;100.00
32033;BME280;31720;52.638;9.216;2022-10-24T03:26:43;100314.19;;;12.36;100.00
32033;BME280;31720;52.638;9.216;2022-10-24T03:29:44;100305.44;;;12.35;100.00
32033;BME280;31720;52.638;9.216;2022-10-24T03:32:47;100303.53;;;12.37;100.00
32033;BME280;31720;52.638;9.216;2022-10-24T03:35:50;100308.69;;;12.39;100.00
32033;BME280;31720;52.638;9.216;2022-10-24T03:38:52;100301.75;;;12.38;100.00
32033;BME280;31720;52.638;9.216;2022-10-24T03:41:53;100294.78;;;12.37;100.00
32033;BME280;31720;52.638;9.216;2022-10-24T03:44:54;100293.00;;;12.37;100.00
32033;BME280;31720;52.638;9.216;2022-10-24T03:47:57;100285.94;;;12.38;100.00
32033;BME280;31720;52.638;9.216;2022-10-24T03:50:59;100299.00;;;12.39;100.00
32033;BME280;31720;52.638;9.216;2022-10-24T03:54:00;100292.69;;;12.42;100.00
32033;BME280;31720;52.638;9.216;2022-10-24T03:57:02;100294.16;;;12.46;100.00
32033;BME280;31720;52.638;9.216;2022-10-24T04:00:05;100293.84;;;12.51;100.00
32033;BME280;31720;52.638;9.216;2022-10-24T04:03:08;100293.75;;;12.52;100.00
32033;BME280;31720;52.638;9.216;2022-10-24T04:06:10;100306.06;;;12.52;100.00
32033;BME280;31720;52.638;9.216;2022-10-24T04:09:12;100302.59;;;12.51;100.00
32033;BME280;31720;52.638;9.216;2022-10-24T04:12:14;100298.38;;;12.49;100.00
32033;BME280;31720;52.638;9.216;2022-10-24T04:15:15;100301.00;;;12.49;100.00
32033;BME280;31720;52.638;9.216;2022-10-24T04:18:18;100310.63;;;12.50;100.00
32033;BME280;31720;52.638;9.216;2022-10-24T04:21:19;100307.22;;;12.48;100.00
32033;BME280;31720;52.638;9.216;2022-10-24T04:24:21;100311.03;;;12.43;100.00
32033;BME280;31720;52.638;9.216;2022-10-24T04:27:22;100316.53;;;12.40;100.00
32033;BME280;31720;52.638;9.216;2022-10-24T04:30:24;100323.66;;;12.38;100.00
32033;BME280;31720;52.638;9.216;2022-10-24T04:33:27;100316.59;;;12.39;100.00
32033;BME280;31720;52.638;9.216;2022-10-24T04:36:28;100321.78;;;12.40;100.00
32033;BME280;31720;52.638;9.216;2022-10-24T04:39:30;100323.34;;;12.43;100.00
32033;BME280;31720;52.638;9.216;2022-10-24T04:42:31;100318.72;;;12.47;100.00
32033;BME280;31720;52.638;9.216;2022-10-24T04:45:33;100315.13;;;12.48;100.00
32033;BME280;31720;52.638;9.216;2022-10-24T04:48:35;100312.50;;;12.48;100.00
32033;BME280;31720;52.638;9.216;2022-10-24T04:51:37;100309.66;;;12.51;100.00
32033;BME280;31720;52.638;9.216;2022-10-24T04:54:39;100316.63;;;12.52;100.00
32033;BME280;31720;52.638;9.216;2022-10-24T04:57:40;100313.88;;;12.53;100.00
32033;BME280;31720;52.638;9.216;2022-10-24T05:00:41;100321.78;;;12.53;100.00
32033;BME280;31720;52.638;9.216;2022-10-24T05:03:47;100323.56;;;12.53;100.00
32033;BME280;31720;52.638;9.216;2022-10-24T05:06:48;100315.66;;;12.53;100.00
32033;BME280;31720;52.638;9.216;2022-10-24T05:09:49;100320.94;;;12.53;100.00
32033;BME280;31720;52.638;9.216;2022-10-24T05:12:51;100319.06;;;12.55;100.00
32033;BME280;31720;52.638;9.216;2022-10-24T05:15:53;100324.75;;;12.61;100.00
32033;BME280;31720;52.638;9.216;2022-10-24T05:18:55;100320.22;;;12.63;100.00
32033;BME280;31720;52.638;9.216;2022-10-24T05:21:57;100315.03;;;12.62;100.00
32033;BME280;31720;52.638;9.216;2022-10-24T05:24:58;100309.88;;;12.60;100.00
32033;BME280;31720;52.638;9.216;2022-10-24T05:28:00;100321.16;;;12.62;100.00
32033;BME280;31720;52.638;9.216;2022-10-24T05:31:01;100308.84;;;12.63;100.00
32033;BME280;31720;52.638;9.216;2022-10-24T05:34:04;100309.03;;;12.60;100.00
32033;BME280;31720;52.638;9.216;2022-10-24T05:37:05;100307.56;;;12.56;100.00
32033;BME280;31720;52.638;9.216;2022-10-24T05:40:08;100306.84;;;12.54;100.00
32033;BME280;31720;52.638;9.216;2022-10-24T05:43:10;100304.28;;;12.52;100.00
32033;BME280;31720;52.638;9.216;2022-10-24T05:46:11;100301.66;;;12.52;100.00
32033;BME280;31720;52.638;9.216;2022-10-24T05:49:14;100289.41;;;12.51;100.00
32033;BME280;31720;52.638;9.216;2022-10-24T05:52:16;100293.75;;;12.52;100.00
32033;BME280;31720;52.638;9.216;2022-10-24T05:55:17;100290.69;;;12.58;100.00
32033;BME280;31720;52.638;9.216;2022-10-24T05:58:19;100274.88;;;12.58;100.00
32033;BME280;31720;52.638;9.216;2022-10-24T06:01:21;100276.56;;;12.59;100.00
32033;BME280;31720;52.638;9.216;2022-10-24T06:04:24;100274.13;;;12.56;100.00
32033;BME280;31720;52.638;9.216;2022-10-24T06:07:25;100272.44;;;12.55;100.00
32033;BME280;31720;52.638;9.216;2022-10-24T06:10:27;100279.41;;;12.56;100.00
32033;BME280;31720;52.638;9.216;2022-10-24T06:13:29;100276.88;;;12.55;100.00
32033;BME280;31720;52.638;9.216;2022-10-24T06:16:30;100290.38;;;12.50;100.00
32033;BME280;31720;52.638;9.216;2022-10-24T06:19:35;100292.78;;;12.53;100.00
32033;BME280;31720;52.638;9.216;2022-10-24T06:22:36;100294.81;;;12.50;100.00
32033;BME280;31720;52.638;9.216;2022-10-24T06:25:39;100278.34;;;12.46;100.00
32033;BME280;31720;52.638;9.216;2022-10-24T06:28:40;100293.09;;;12.49;100.00
32033;BME280;31720;52.638;9.216;2022-10-24T06:31:42;100291.84;;;12.54;100.00
32033;BME280;31720;52.638;9.216;2022-10-24T06:34:44;100296.06;;;12.57;100.00
32033;BME280;31720;52.638;9.216;2022-10-24T06:37:46;100293.66;;;12.54;100.00
32033;BME280;31720;52.638;9.216;2022-10-24T06:40:47;100300.38;;;12.58;100.00
32033;BME280;31720;52.638;9.216;2022-10-24T06:43:49;100303.88;;;12.58;100.00
32033;BME280;31720;52.638;9.216;2022-10-24T06:46:52;100308.19;;;12.59;100.00
32033;BME280;31720;52.638;9.216;2022-10-24T06:49:55;100324.66;;;12.63;100.00
32033;BME280;31720;52.638;9.216;2022-10-24T06:52:56;100322.75;;;12.65;100.00
32033;BME280;31720;52.638;9.216;2022-10-24T06:55:58;100324.09;;;12.70;100.00
32033;BME280;31720;52.638;9.216;2022-10-24T06:59:00;100335.09;;;12.77;100.00
32033;BME280;31720;52.638;9.216;2022-10-24T07:02:01;100340.88;;;12.82;100.00
32033;BME280;31720;52.638;9.216;2022-10-24T07:05:05;100340.75;;;12.84;100.00
32033;BME280;31720;52.638;9.216;2022-10-24T07:08:09;100338.56;;;12.90;100.00
32033;BME280;31720;52.638;9.216;2022-10-24T07:11:11;100347.00;;;12.95;100.00
32033;BME280;31720;52.638;9.216;2022-10-24T07:14:12;100357.22;;;13.00;100.00
32033;BME280;31720;52.638;9.216;2022-10-24T07:17:14;100361.75;;;13.11;100.00
32033;BME280;31720;52.638;9.216;2022-10-24T07:20:17;100369.78;;;13.22;100.00
32033;BME280;31720;52.638;9.216;2022-10-24T07:23:18;100367.34;;;13.32;100.00
32033;BME280;31720;52.638;9.216;2022-10-24T07:26:20;100374.94;;;13.36;100.00
32033;BME280;31720;52.638;9.216;2022-10-24T07:29:22;100376.16;;;13.43;100.00
32033;BME280;31720;52.638;9.216;2022-10-24T07:32:24;100373.84;;;13.52;100.00
32033;BME280;31720;52.638;9.216;2022-10-24T07:35:27;100379.59;;;13.69;100.00
32033;BME280;31720;52.638;9.216;2022-10-24T07:38:29;100367.84;;;13.74;100.00
32033;BME280;31720;52.638;9.216;2022-10-24T07:41:31;100367.03;;;13.73;100.00
32033;BME280;31720;52.638;9.216;2022-10-24T07:44:32;100374.19;;;13.71;100.00
32033;BME280;31720;52.638;9.216;2022-10-24T07:47:34;100373.13;;;13.74;100.00
32033;BME280;31720;52.638;9.216;2022-10-24T07:50:42;100367.53;;;13.78;100.00
32033;BME280;31720;52.638;9.216;2022-10-24T07:53:44;100367.91;;;13.85;100.00
32033;BME280;31720;52.638;9.216;2022-10-24T07:56:45;100354.97;;;13.93;100.00
32033;BME280;31720;52.638;9.216;2022-10-24T07:59:47;100357.63;;;13.93;100.00
32033;BME280;31720;52.638;9.216;2022-10-24T08:02:48;100360.78;;;13.98;100.00
32033;BME280;31720;52.638;9.216;2022-10-24T08:05:51;100358.81;;;14.13;100.00
32033;BME280;31720;52.638;9.216;2022-10-24T08:08:56;100358.34;;;14.19;100.00
32033;BME280;31720;52.638;9.216;2022-10-24T08:11:57;100363.41;;;14.22;100.00
32033;BME280;31720;52.638;9.216;2022-10-24T08:14:59;100358.63;;;14.27;100.00
32033;BME280;31720;52.638;9.216;2022-10-24T08:18:00;100352.38;;;14.28;100.00
32033;BME280;31720;52.638;9.216;2022-10-24T08:21:04;100361.25;;;14.27;100.00
32033;BME280;31720;52.638;9.216;2022-10-24T08:24:06;100359.69;;;14.25;100.00
32033;BME280;31720;52.638;9.216;2022-10-24T08:27:08;100358.72;;;14.26;100.00
32033;BME280;31720;52.638;9.216;2022-10-24T08:30:10;100357.78;;;14.27;100.00
32033;BME280;31720;52.638;9.216;2022-10-24T08:33:12;100358.16;;;14.33;100.00
32033;BME280;31720;52.638;9.216;2022-10-24T08:36:19;100356.63;;;14.42;100.00
32033;BME280;31720;52.638;9.216;2022-10-24T08:39:21;100347.72;;;14.43;100.00
32033;BME280;31720;52.638;9.216;2022-10-24T08:42:23;100349.59;;;14.54;100.00
32033;BME280;31720;52.638;9.216;2022-10-24T08:45:28;100344.91;;;14.57;100.00
32033;BME280;31720;52.638;9.216;2022-10-24T08:48:42;100349.00;;;14.61;100.00
32033;BME280;31720;52.638;9.216;2022-10-24T08:51:50;100349.38;;;14.68;100.00
32033;BME280;31720;52.638;9.216;2022-10-24T08:54:54;100347.47;;;14.81;100.00
32033;BME280;31720;52.638;9.216;2022-10-24T08:57:59;100345.78;;;14.91;100.00
32033;BME280;31720;52.638;9.216;2022-10-24T09:01:04;100343.50;;;14.98;100.00
32033;BME280;31720;52.638;9.216;2022-10-24T09:04:09;100342.53;;;15.10;100.00
32033;BME280;31720;52.638;9.216;2022-10-24T09:07:16;100337.25;;;15.21;100.00
32033;BME280;31720;52.638;9.216;2022-10-24T09:10:22;100338.56;;;15.27;100.00
32033;BME280;31720;52.638;9.216;2022-10-24T09:13:27;100336.63;;;15.40;100.00
32033;BME280;31720;52.638;9.216;2022-10-24T09:16:29;100335.66;;;15.41;100.00
32033;BME280;31720;52.638;9.216;2022-10-24T09:19:31;100335.53;;;15.54;100.00
32033;BME280;31720;52.638;9.216;2022-10-24T09:22:34;100339.59;;;15.69;100.00
32033;BME280;31720;52.638;9.216;2022-10-24T09:25:37;100340.19;;;15.73;100.00
32033;BME280;31720;52.638;9.216;2022-10-24T09:28:41;100336.66;;;15.84;100.00
32033;BME280;31720;52.638;9.216;2022-10-24T09:31:43;100342.44;;;15.89;100.00
32033;BME280;31720;52.638;9.216;2022-10-24T09:34:45;100341.94;;;15.95;100.00
32033;BME280;31720;52.638;9.216;2022-10-24T09:37:49;100345.22;;;15.87;100.00
32033;BME280;31720;52.638;9.216;2022-10-24T09:40:52;100346.88;;;15.88;100.00
32033;BME280;31720;52.638;9.216;2022-10-24T09:43:55;100344.00;;;15.91;100.00
32033;BME280;31720;52.638;9.216;2022-10-24T09:46:57;100355.75;;;15.98;100.00
32033;BME280;31720;52.638;9.216;2022-10-24T09:49:58;100349.75;;;15.96;100.00
32033;BME280;31720;52.638;9.216;2022-10-24T09:53:02;100365.03;;;16.04;100.00
32033;BME280;31720;52.638;9.216;2022-10-24T09:56:07;100355.34;;;16.14;100.00
32033;BME280;31720;52.638;9.216;2022-10-24T09:59:28;100355.78;;;16.31;100.00
32033;BME280;31720;52.638;9.216;2022-10-24T10:02:30;100360.31;;;16.40;100.00
32033;BME280;31720;52.638;9.216;2022-10-24T10:05:45;100356.66;;;16.62;100.00
32033;BME280;31720;52.638;9.216;2022-10-24T10:08:50;100357.97;;;16.67;100.00
32033;BME280;31720;52.638;9.216;2022-10-24T10:11:54;100374.53;;;16.60;100.00
32033;BME280;31720;52.638;9.216;2022-10-24T10:14:56;100363.66;;;16.63;100.00
32033;BME280;31720;52.638;9.216;2022-10-24T10:18:01;100356.63;;;16.73;100.00
32033;BME280;31720;52.638;9.216;2022-10-24T10:21:08;100365.28;;;16.75;99.07
32033;BME280;31720;52.638;9.216;2022-10-24T10:24:24;100368.25;;;16.61;100.00
32033;BME280;31720;52.638;9.216;2022-10-24T10:27:32;100379.28;;;16.77;99.02
32033;BME280;31720;52.638;9.216;2022-10-24T10:30:34;100376.41;;;16.69;100.00
32033;BME280;31720;52.638;9.216;2022-10-24T10:33:40;100381.66;;;16.80;100.00
32033;BME280;31720;52.638;9.216;2022-10-24T10:36:59;100378.09;;;16.91;98.66
32033;BME280;31720;52.638;9.216;2022-10-24T10:43:29;100396.47;;;17.04;95.20
32033;BME280;31720;52.638;9.216;2022-10-24T10:46:40;100386.31;;;17.09;94.25
32033;BME280;31720;52.638;9.216;2022-10-24T10:49:45;100397.75;;;17.09;94.78
32033;BME280;31720;52.638;9.216;2022-10-24T10:52:49;100397.63;;;17.11;97.04
32033;BME280;31720;52.638;9.216;2022-10-24T10:55:56;100391.63;;;17.09;94.30
32033;BME280;31720;52.638;9.216;2022-10-24T10:59:12;100386.13;;;17.01;95.01
32033;BME280;31720;52.638;9.216;2022-10-24T11:02:41;100377.97;;;16.92;95.24
32033;BME280;31720;52.638;9.216;2022-10-24T11:05:54;100395.50;;;16.84;97.07
32033;BME280;31720;52.638;9.216;2022-10-24T11:09:22;100406.28;;;16.82;96.56
32033;BME280;31720;52.638;9.216;2022-10-24T11:12:29;100399.00;;;16.84;97.91
32033;BME280;31720;52.638;9.216;2022-10-24T11:15:36;100400.81;;;16.84;96.60
32033;BME280;31720;52.638;9.216;2022-10-24T11:18:43;100399.59;;;16.88;98.24
32033;BME280;31720;52.638;9.216;2022-10-24T11:21:46;100399.63;;;17.18;94.42
32033;BME280;31720;52.638;9.216;2022-10-24T11:24:56;100398.34;;;17.13;95.41
32033;BME280;31720;52.638;9.216;2022-10-24T11:28:03;100387.34;;;16.96;99.20
32033;BME280;31720;52.638;9.216;2022-10-24T11:31:12;100382.22;;;17.05;96.69
32033;BME280;31720;52.638;9.216;2022-10-24T11:34:19;100381.81;;;17.09;91.96
32033;BME280;31720;52.638;9.216;2022-10-24T11:37:26;100398.28;;;17.03;94.48
32033;BME280;31720;52.638;9.216;2022-10-24T11:40:31;100381.25;;;17.06;97.11
32033;BME280;31720;52.638;9.216;2022-10-24T11:43:36;100391.56;;;16.99;99.13
32033;BME280;31720;52.638;9.216;2022-10-24T11:46:43;100399.00;;;16.84;99.88
32033;BME280;31720;52.638;9.216;2022-10-24T11:49:52;100415.00;;;16.73;98.41
32033;BME280;31720;52.638;9.216;2022-10-24T11:53:01;100406.81;;;16.76;95.89
32033;BME280;31720;52.638;9.216;2022-10-24T11:56:11;100395.78;;;16.81;95.93
32033;BME280;31720;52.638;9.216;2022-10-24T11:59:16;100390.59;;;16.79;95.71
32033;BME280;31720;52.638;9.216;2022-10-24T12:02:53;100403.41;;;16.95;98.50
32033;BME280;31720;52.638;9.216;2022-10-24T12:06:12;100410.91;;;17.41;93.73
32033;BME280;31720;52.638;9.216;2022-10-24T12:09:44;100401.88;;;17.63;88.43
32033;BME280;31720;52.638;9.216;2022-10-24T12:13:06;100401.28;;;17.50;88.97
32033;BME280;31720;52.638;9.216;2022-10-24T12:16:17;100410.78;;;17.53;87.38
32033;BME280;31720;52.638;9.216;2022-10-24T12:19:25;100413.03;;;17.57;86.36
32033;BME280;31720;52.638;9.216;2022-10-24T12:22:33;100420.56;;;17.52;83.68
32033;BME280;31720;52.638;9.216;2022-10-24T12:25:36;100420.72;;;17.50;83.58
32033;BME280;31720;52.638;9.216;2022-10-24T12:28:38;100410.56;;;17.35;84.99
32033;BME280;31720;52.638;9.216;2022-10-24T12:31:40;100421.69;;;17.19;90.13
32033;BME280;31720;52.638;9.216;2022-10-24T12:34:55;100414.97;;;17.15;88.54
32033;BME280;31720;52.638;9.216;2022-10-24T12:37:58;100422.25;;;17.13;88.66
32033;BME280;31720;52.638;9.216;2022-10-24T12:41:00;100408.25;;;17.11;89.15
32033;BME280;31720;52.638;9.216;2022-10-24T12:44:40;100412.28;;;17.05;91.20
32033;BME280;31720;52.638;9.216;2022-10-24T12:47:42;100432.91;;;17.02;91.64
32033;BME280;31720;52.638;9.216;2022-10-24T12:51:04;100417.25;;;16.98;92.66
32033;BME280;31720;52.638;9.216;2022-10-24T12:54:40;100416.41;;;16.98;91.84
32033;BME280;31720;52.638;9.216;2022-10-24T12:57:44;100422.16;;;17.03;91.57
32033;BME280;31720;52.638;9.216;2022-10-24T13:00:52;100420.41;;;17.13;88.28
32033;BME280;31720;52.638;9.216;2022-10-24T13:07:48;100423.81;;;17.25;88.97
32033;BME280;31720;52.638;9.216;2022-10-24T13:11:01;100429.31;;;17.33;87.61
32033;BME280;31720;52.638;9.216;2022-10-24T13:14:24;100434.47;;;17.35;89.71
32033;BME280;31720;52.638;9.216;2022-10-24T13:17:35;100430.41;;;17.61;88.02
32033;BME280;31720;52.638;9.216;2022-10-24T13:20:43;100421.72;;;17.99;87.26
32033;BME280;31720;52.638;9.216;2022-10-24T13:23:47;100410.69;;;18.23;80.75
32033;BME280;31720;52.638;9.216;2022-10-24T13:26:50;100414.44;;;18.11;82.90
32033;BME280;31720;52.638;9.216;2022-10-24T13:30:32;100414.97;;;17.86;81.92
32033;BME280;31720;52.638;9.216;2022-10-24T13:33:42;100415.19;;;17.73;84.46
32033;BME280;31720;52.638;9.216;2022-10-24T13:36:44;100418.94;;;17.70;82.60
32033;BME280;31720;52.638;9.216;2022-10-24T13:39:50;100417.84;;;17.73;84.94
32033;BME280;31720;52.638;9.216;2022-10-24T13:42:53;100425.78;;;18.04;83.87
32033;BME280;31720;52.638;9.216;2022-10-24T13:46:01;100414.31;;;18.22;79.93
32033;BME280;31720;52.638;9.216;2022-10-24T13:49:05;100436.03;;;18.08;82.54
32033;BME280;31720;52.638;9.216;2022-10-24T13:52:13;100427.72;;;17.92;81.38
32033;BME280;31720;52.638;9.216;2022-10-24T13:55:21;100419.25;;;17.67;84.11
32033;BME280;31720;52.638;9.216;2022-10-24T13:58:24;100419.47;;;17.55;84.86
32033;BME280;31720;52.638;9.216;2022-10-24T14:01:28;100416.94;;;17.53;84.38
32033;BME280;31720;52.638;9.216;2022-10-24T14:04:30;100433.13;;;17.40;86.51
32033;BME280;31720;52.638;9.216;2022-10-24T14:07:34;100424.13;;;17.32;87.25
32033;BME280;31720;52.638;9.216;2022-10-24T14:10:37;100424.66;;;17.25;88.59
32033;BME280;31720;52.638;9.216;2022-10-24T14:13:43;100429.53;;;17.20;88.93
32033;BME280;31720;52.638;9.216;2022-10-24T14:16:45;100423.31;;;17.31;87.86
32033;BME280;31720;52.638;9.216;2022-10-24T14:19:48;100433.38;;;17.37;86.67
32033;BME280;31720;52.638;9.216;2022-10-24T14:22:51;100436.47;;;17.42;87.39
32033;BME280;31720;52.638;9.216;2022-10-24T14:25:56;100436.22;;;17.45;87.15
32033;BME280;31720;52.638;9.216;2022-10-24T14:28:58;100431.09;;;17.54;85.33
32033;BME280;31720;52.638;9.216;2022-10-24T14:32:02;100428.94;;;17.47;87.71
32033;BME280;31720;52.638;9.216;2022-10-24T14:35:11;100424.75;;;17.45;87.92
32033;BME280;31720;52.638;9.216;2022-10-24T14:38:14;100438.44;;;17.40;88.16
32033;BME280;31720;52.638;9.216;2022-10-24T14:41:20;100427.63;;;17.32;88.44
32033;BME280;31720;52.638;9.216;2022-10-24T14:44:23;100439.25;;;17.31;87.07
32033;BME280;31720;52.638;9.216;2022-10-24T14:47:27;100442.41;;;17.25;87.15
32033;BME280;31720;52.638;9.216;2022-10-24T14:50:36;100445.41;;;17.11;88.45
32033;BME280;31720;52.638;9.216;2022-10-24T14:53:38;100444.72;;;17.09;89.54
32033;BME280;31720;52.638;9.216;2022-10-24T14:56:41;100441.91;;;17.10;88.35
32033;BME280;31720;52.638;9.216;2022-10-24T14:59:43;100441.72;;;17.02;88.82
32033;BME280;31720;52.638;9.216;2022-10-24T15:02:46;100457.94;;;16.99;90.40
32033;BME280;31720;52.638;9.216;2022-10-24T15:05:55;100457.44;;;16.94;89.67
32033;BME280;31720;52.638;9.216;2022-10-24T15:09:03;100465.75;;;16.80;93.87
32033;BME280;31720;52.638;9.216;2022-10-24T15:12:11;100459.16;;;16.74;91.07
32033;BME280;31720;52.638;9.216;2022-10-24T15:15:22;100454.44;;;16.78;91.23
32033;BME280;31720;52.638;9.216;2022-10-24T15:18:25;100459.00;;;16.76;92.25
32033;BME280;31720;52.638;9.216;2022-10-24T15:21:31;100454.81;;;16.73;94.56
32033;BME280;31720;52.638;9.216;2022-10-24T15:24:34;100458.81;;;16.67;94.75
32033;BME280;31720;52.638;9.216;2022-10-24T15:27:39;100475.66;;;16.66;94.51
32033;BME280;31720;52.638;9.216;2022-10-24T15:30:40;100480.00;;;16.79;90.91
32033;BME280;31720;52.638;9.216;2022-10-24T15:33:42;100478.81;;;16.71;94.31
32033;BME280;31720;52.638;9.216;2022-10-24T15:36:45;100487.63;;;16.61;95.96
32033;BME280;31720;52.638;9.216;2022-10-24T15:39:47;100483.94;;;16.52;97.28
32033;BME280;31720;52.638;9.216;2022-10-24T15:42:50;100486.59;;;16.52;95.38
32033;BME280;31720;52.638;9.216;2022-10-24T15:45:52;100496.72;;;16.47;96.38
32033;BME280;31720;52.638;9.216;2022-10-24T15:48:53;100487.22;;;16.44;96.11
32033;BME280;31720;52.638;9.216;2022-10-24T15:51:56;100502.28;;;16.44;99.18
32033;BME280;31720;52.638;9.216;2022-10-24T15:54:58;100506.78;;;16.32;99.02
32033;BME280;31720;52.638;9.216;2022-10-24T15:58:01;100512.72;;;16.24;99.43
32033;BME280;31720;52.638;9.216;2022-10-24T16:01:03;100511.78;;;16.14;100.00
32033;BME280;31720;52.638;9.216;2022-10-24T16:04:06;100517.56;;;16.08;100.00
32033;BME280;31720;52.638;9.216;2022-10-24T16:07:08;100511.66;;;16.05;100.00